createdAt,value
2019-04-23T00:00:56.370Z,0.00
2019-04-23T00:01:51.222Z,0.00
2019-04-23T00:02:50.716Z,0.00
2019-04-23T00:03:46.960Z,0.00
2019-04-23T00:04:47.946Z,0.00
2019-04-23T00:05:48.563Z,0.00
2019-04-23T00:06:58.013Z,0.00
2019-04-23T00:10:01.300Z,0.00
2019-04-23T00:10:53.957Z,0.00
2019-04-23T00:11:51.833Z,0.00
2019-04-23T00:12:54.212Z,0.00
2019-04-23T00:13:49.871Z,0.00
2019-04-23T00:15:04.869Z,0.00
2019-04-23T00:16:00.432Z,0.00
2019-04-23T00:16:50.917Z,0.00
2019-04-23T00:17:49.077Z,0.00
2019-04-23T00:18:49.360Z,0.00
2019-04-23T00:19:55.230Z,0.00
2019-04-23T00:20:51.137Z,0.00
2019-04-23T00:21:52.071Z,0.00
2019-04-23T00:24:01.772Z,0.00
2019-04-23T00:25:28.969Z,0.00
2019-04-23T00:25:52.578Z,0.00
2019-04-23T00:26:50.455Z,0.00
2019-04-23T00:28:04.567Z,0.00
2019-04-23T00:29:03.048Z,0.00
2019-04-23T00:29:56.253Z,0.00
2019-04-23T00:31:16.201Z,0.00
2019-04-23T00:31:49.920Z,0.00
2019-04-23T00:32:59.467Z,0.00
2019-04-23T00:33:52.013Z,0.00
2019-04-23T00:34:56.456Z,0.00
2019-04-23T00:35:51.547Z,0.00
2019-04-23T00:36:51.360Z,0.00
2019-04-23T00:37:55.371Z,0.00
2019-04-23T00:38:50.136Z,0.00
2019-04-23T00:39:54.717Z,0.00
2019-04-23T00:41:58.779Z,0.00
2019-04-23T00:42:53.284Z,0.00
2019-04-23T00:44:08.680Z,0.00
2019-04-23T00:46:13.997Z,0.00
2019-04-23T00:46:55.756Z,0.00
2019-04-23T00:47:54.741Z,0.00
2019-04-23T00:48:57.585Z,0.00
2019-04-23T00:50:04.322Z,0.00
2019-04-23T00:50:56.145Z,0.00
2019-04-23T00:52:04.281Z,0.00
2019-04-23T00:53:03.858Z,0.00
2019-04-23T00:54:02.656Z,0.00
2019-04-23T00:55:07.158Z,0.00
2019-04-23T00:56:03.965Z,0.00
2019-04-23T00:57:00.665Z,0.00
2019-04-23T00:58:03.164Z,0.00
2019-04-23T00:58:54.906Z,0.00
2019-04-23T01:00:03.475Z,0.00
2019-04-23T01:01:57.927Z,0.00
2019-04-23T01:03:01.915Z,0.00
2019-04-23T01:03:58.229Z,0.00
2019-04-23T01:05:06.791Z,0.00
2019-04-23T01:05:55.926Z,0.00
2019-04-23T01:06:58.337Z,0.00
2019-04-23T01:08:01.850Z,0.00
2019-04-23T01:08:55.165Z,0.00
2019-04-23T01:10:00.899Z,0.00
2019-04-23T01:11:16.428Z,0.00
2019-04-23T01:12:03.883Z,0.00
2019-04-23T01:12:59.991Z,0.00
2019-04-23T01:13:57.553Z,0.00
2019-04-23T01:15:04.369Z,0.00
2019-04-23T01:15:59.693Z,0.00
2019-04-23T01:17:02.755Z,0.00
2019-04-23T01:18:02.233Z,0.00
2019-04-23T01:19:18.981Z,0.00
2019-04-23T01:20:15.023Z,0.00
2019-04-23T01:20:54.686Z,0.00
2019-04-23T01:21:38.991Z,0.00
2019-04-23T01:22:40.103Z,0.00
2019-04-23T01:23:44.331Z,0.00
2019-04-23T01:24:40.809Z,0.00
2019-04-23T01:25:48.340Z,0.00
2019-04-23T01:27:16.716Z,0.00
2019-04-23T01:28:04.447Z,0.00
2019-04-23T01:29:06.973Z,0.00
2019-04-23T01:30:12.433Z,0.00
2019-04-23T01:31:11.998Z,0.00
2019-04-23T01:32:14.163Z,0.00
2019-04-23T01:33:03.057Z,0.00
2019-04-23T01:34:11.123Z,0.00
2019-04-23T01:35:12.770Z,0.00
2019-04-23T01:36:16.469Z,0.00
2019-04-23T01:37:10.927Z,0.00
2019-04-23T01:38:07.742Z,0.00
2019-04-23T01:39:08.258Z,0.00
2019-04-23T01:41:07.869Z,0.00
2019-04-23T01:42:14.569Z,0.00
2019-04-23T01:43:05.564Z,0.00
2019-04-23T01:44:03.658Z,0.00
2019-04-23T01:45:13.422Z,0.00
2019-04-23T01:46:09.859Z,0.00
2019-04-23T01:47:12.457Z,0.00
2019-04-23T01:48:18.139Z,0.00
2019-04-23T01:49:07.125Z,0.00
2019-04-23T01:50:14.095Z,0.00
2019-04-23T01:51:02.368Z,0.00
2019-04-23T01:52:08.273Z,0.00
2019-04-23T01:53:16.725Z,0.00
2019-04-23T01:54:13.761Z,0.00
2019-04-23T01:55:15.513Z,0.00
2019-04-23T01:56:04.893Z,0.00
2019-04-23T01:57:09.634Z,0.00
2019-04-23T01:59:14.119Z,0.00
2019-04-23T02:00:17.282Z,0.00
2019-04-23T02:01:29.622Z,0.00
2019-04-23T02:02:14.326Z,0.00
2019-04-23T02:03:10.909Z,0.00
2019-04-23T02:04:18.675Z,0.00
2019-04-23T02:05:19.329Z,0.00
2019-04-23T02:07:20.399Z,0.00
2019-04-23T02:08:08.381Z,0.00
2019-04-23T02:09:13.895Z,0.00
2019-04-23T02:11:07.957Z,0.00
2019-04-23T02:12:14.077Z,0.00
2019-04-23T02:13:20.450Z,0.00
2019-04-23T02:15:42.465Z,0.00
2019-04-23T02:16:12.070Z,0.00
2019-04-23T02:17:36.390Z,0.00
2019-04-23T02:18:11.504Z,0.00
2019-04-23T02:19:17.058Z,0.00
2019-04-23T02:20:17.925Z,0.00
2019-04-23T02:21:10.671Z,0.00
2019-04-23T02:22:21.673Z,0.00
2019-04-23T02:24:13.662Z,0.00
2019-04-23T02:25:16.154Z,0.00
2019-04-23T02:26:26.226Z,0.00
2019-04-23T02:27:13.533Z,0.00
2019-04-23T02:29:23.515Z,0.00
2019-04-23T02:30:40.922Z,0.00
2019-04-23T02:32:40.260Z,0.00
2019-04-23T02:34:33.361Z,0.00
2019-04-23T02:37:35.668Z,0.00
2019-04-23T02:39:33.493Z,0.00
2019-04-23T02:40:30.541Z,0.00
2019-04-23T02:41:35.276Z,0.00
2019-04-23T02:43:16.290Z,0.00
2019-04-23T02:44:34.993Z,0.00
2019-04-23T02:45:26.754Z,0.00
2019-04-23T02:46:14.723Z,0.00
2019-04-23T02:47:25.438Z,0.00
2019-04-23T02:48:24.086Z,0.00
2019-04-23T02:49:27.015Z,0.00
2019-04-23T02:52:21.719Z,0.00
2019-04-23T02:53:45.607Z,0.00
2019-04-23T02:54:38.075Z,0.00
2019-04-23T02:55:29.358Z,0.00
2019-04-23T02:56:30.805Z,0.00
2019-04-23T02:57:20.134Z,0.00
2019-04-23T02:58:31.668Z,0.00
2019-04-23T02:59:32.730Z,0.00
2019-04-23T03:00:27.640Z,0.00
2019-04-23T03:01:30.720Z,0.00
2019-04-23T03:02:37.324Z,0.00
2019-04-23T03:03:38.291Z,0.00
2019-04-23T03:05:26.288Z,0.00
2019-04-23T03:08:26.949Z,0.00
2019-04-23T03:10:32.091Z,0.00
2019-04-23T03:11:32.102Z,0.00
2019-04-23T03:14:27.133Z,0.00
2019-04-23T03:16:38.470Z,0.00
2019-04-23T03:17:15.164Z,0.00
2019-04-23T03:19:32.469Z,0.00
2019-04-23T03:22:30.515Z,0.00
2019-04-23T03:24:51.968Z,0.00
2019-04-23T03:25:29.848Z,0.00
2019-04-23T03:26:36.892Z,0.00
2019-04-23T03:27:28.650Z,0.00
2019-04-23T03:28:38.103Z,0.00
2019-04-23T03:29:31.703Z,0.00
2019-04-23T03:30:49.624Z,0.00
2019-04-23T03:35:09.169Z,0.00
2019-04-23T03:36:01.694Z,0.00
2019-04-23T03:37:05.603Z,0.00
2019-04-23T03:37:33.267Z,0.00
2019-04-23T03:38:37.964Z,0.00
2019-04-23T03:39:42.137Z,0.00
2019-04-23T03:40:21.274Z,0.00
2019-04-23T03:41:32.405Z,0.00
2019-04-23T03:42:37.243Z,0.00
2019-04-23T03:43:34.142Z,0.00
2019-04-23T03:44:51.616Z,0.00
2019-04-23T03:45:44.373Z,0.00
2019-04-23T03:46:43.971Z,0.00
2019-04-23T03:48:33.173Z,0.00
2019-04-23T03:49:33.350Z,0.00
2019-04-23T03:50:37.924Z,0.00
2019-04-23T03:52:34.450Z,0.00
2019-04-23T03:57:37.998Z,0.00
2019-04-23T03:59:37.135Z,0.00
2019-04-23T04:01:30.119Z,0.00
2019-04-23T04:04:14.770Z,0.00
2019-04-23T04:05:36.013Z,0.00
2019-04-23T04:07:36.317Z,0.00
2019-04-23T04:08:25.782Z,0.00
2019-04-23T04:09:45.692Z,0.00
2019-04-23T04:10:41.305Z,5.63
2019-04-23T04:11:34.681Z,5.63
2019-04-23T04:12:35.500Z,5.63
2019-04-23T04:13:51.345Z,5.63
2019-04-23T04:14:42.220Z,5.63
2019-04-23T04:15:53.444Z,5.63
2019-04-23T04:16:36.195Z,5.63
2019-04-23T04:18:41.661Z,5.63
2019-04-23T04:19:46.880Z,11.25
2019-04-23T04:21:39.817Z,11.25
2019-04-23T04:22:47.099Z,11.25
2019-04-23T04:23:58.203Z,11.25
2019-04-23T04:26:44.355Z,11.25
2019-04-23T04:27:45.869Z,16.88
2019-04-23T04:28:38.426Z,16.88
2019-04-23T04:30:47.629Z,16.88
2019-04-23T04:31:42.803Z,16.88
2019-04-23T04:32:36.718Z,16.88
2019-04-23T04:35:11.207Z,22.50
2019-04-23T04:35:24.789Z,22.50
2019-04-23T04:38:39.955Z,22.50
2019-04-23T04:39:43.257Z,28.13
2019-04-23T04:40:42.555Z,28.13
2019-04-23T04:41:47.493Z,28.13
2019-04-23T04:42:37.046Z,28.13
2019-04-23T04:43:41.515Z,33.75
2019-04-23T04:44:42.730Z,33.75
2019-04-23T04:45:49.780Z,33.75
2019-04-23T04:46:39.038Z,33.75
2019-04-23T04:47:44.694Z,39.38
2019-04-23T04:48:46.438Z,39.38
2019-04-23T04:49:54.805Z,39.38
2019-04-23T04:50:46.968Z,39.38
2019-04-23T04:51:49.847Z,39.38
2019-04-23T04:54:24.621Z,45.00
2019-04-23T04:55:55.471Z,45.00
2019-04-23T04:56:46.898Z,45.00
2019-04-23T04:58:52.992Z,45.00
2019-04-23T04:59:51.168Z,50.63
2019-04-23T05:01:36.976Z,50.63
2019-04-23T05:03:03.362Z,50.63
2019-04-23T05:03:29.202Z,50.63
2019-04-23T05:04:52.360Z,50.63
2019-04-23T05:06:56.929Z,56.25
2019-04-23T05:07:40.480Z,56.25
2019-04-23T05:08:54.694Z,56.25
2019-04-23T05:09:48.250Z,56.25
2019-04-23T05:10:43.298Z,61.88
2019-04-23T05:11:45.831Z,61.88
2019-04-23T05:12:40.324Z,61.88
2019-04-23T05:13:46.921Z,61.88
2019-04-23T05:14:59.167Z,61.88
2019-04-23T05:15:39.022Z,61.88
2019-04-23T05:17:57.215Z,67.50
2019-04-23T05:20:43.113Z,67.50
2019-04-23T05:21:46.766Z,67.50
2019-04-23T05:24:43.351Z,73.13
2019-04-23T05:25:42.857Z,73.13
2019-04-23T05:26:48.126Z,73.13
2019-04-23T05:27:47.162Z,73.13
2019-04-23T05:28:38.747Z,73.13
2019-04-23T05:29:42.242Z,73.13
2019-04-23T05:31:32.987Z,78.75
2019-04-23T05:32:41.588Z,78.75
2019-04-23T05:33:37.128Z,78.75
2019-04-23T05:34:42.882Z,78.75
2019-04-23T05:36:02.049Z,78.75
2019-04-23T05:36:41.511Z,78.75
2019-04-23T05:37:52.885Z,78.75
2019-04-23T05:39:30.938Z,78.75
2019-04-23T05:40:51.341Z,84.38
2019-04-23T05:42:39.866Z,84.38
2019-04-23T05:43:43.597Z,84.38
2019-04-23T05:44:43.287Z,84.38
2019-04-23T05:45:41.340Z,84.38
2019-04-23T05:47:42.920Z,84.38
2019-04-23T05:48:40.483Z,90.00
2019-04-23T05:49:39.775Z,90.00
2019-04-23T05:51:55.179Z,90.00
2019-04-23T05:52:45.827Z,90.00
2019-04-23T05:53:39.652Z,90.00
2019-04-23T05:54:46.488Z,90.00
2019-04-23T05:55:42.652Z,90.00
2019-04-23T05:56:41.922Z,90.00
2019-04-23T05:57:40.426Z,95.63
2019-04-23T05:58:51.178Z,95.63
2019-04-23T05:59:42.137Z,95.63
2019-04-23T06:00:48.095Z,95.63
2019-04-23T06:02:48.507Z,95.63
2019-04-23T06:03:48.946Z,95.63
2019-04-23T06:04:43.104Z,95.63
2019-04-23T06:05:49.823Z,95.63
2019-04-23T06:07:43.431Z,95.63
2019-04-23T06:08:47.236Z,95.63
2019-04-23T06:09:41.174Z,95.63
2019-04-23T06:10:54.147Z,95.63
2019-04-23T06:12:43.712Z,95.63
2019-04-23T06:13:35.900Z,101.25
2019-04-23T06:14:47.370Z,101.25
2019-04-23T06:16:02.121Z,101.25
2019-04-23T06:17:03.249Z,101.25
2019-04-23T06:18:02.001Z,101.25
2019-04-23T06:18:44.801Z,101.25
2019-04-23T06:19:43.140Z,101.25
2019-04-23T06:20:54.333Z,106.88
2019-04-23T06:22:03.988Z,106.88
2019-04-23T06:23:52.956Z,106.88
2019-04-23T06:24:45.118Z,106.88
2019-04-23T06:26:45.504Z,106.88
2019-04-23T06:27:49.366Z,106.88
2019-04-23T06:28:50.826Z,112.50
2019-04-23T06:29:43.204Z,112.50
2019-04-23T06:30:46.765Z,112.50
2019-04-23T06:32:42.826Z,112.50
2019-04-23T06:33:48.109Z,112.50
2019-04-23T06:34:47.169Z,112.50
2019-04-23T06:36:44.483Z,118.13
2019-04-23T06:38:14.370Z,118.13
2019-04-23T06:38:53.798Z,118.13
2019-04-23T06:40:47.211Z,118.13
2019-04-23T06:41:49.889Z,118.13
2019-04-23T06:42:48.637Z,118.13
2019-04-23T06:43:49.707Z,118.13
2019-04-23T06:44:45.544Z,123.75
2019-04-23T06:45:45.364Z,123.75
2019-04-23T06:46:50.646Z,123.75
2019-04-23T06:47:45.175Z,123.75
2019-04-23T06:48:47.540Z,123.75
2019-04-23T06:49:54.652Z,123.75
2019-04-23T06:50:50.665Z,123.75
2019-04-23T06:51:53.325Z,123.75
2019-04-23T06:52:45.525Z,123.75
2019-04-23T06:53:48.623Z,123.75
2019-04-23T06:54:56.445Z,123.75
2019-04-23T06:55:49.454Z,123.75
2019-04-23T06:56:58.689Z,123.75
2019-04-23T06:57:52.271Z,123.75
2019-04-23T06:58:51.148Z,123.75
2019-04-23T06:59:48.456Z,123.75
2019-04-23T07:00:48.161Z,123.75
2019-04-23T07:01:56.286Z,129.38
2019-04-23T07:02:53.761Z,129.38
2019-04-23T07:03:50.639Z,129.38
2019-04-23T07:04:58.200Z,129.38
2019-04-23T07:05:56.582Z,129.38
2019-04-23T07:06:58.356Z,129.38
2019-04-23T07:07:54.721Z,129.38
2019-04-23T07:09:38.890Z,129.38
2019-04-23T07:10:54.255Z,129.38
2019-04-23T07:11:47.566Z,129.38
2019-04-23T07:12:59.687Z,129.38
2019-04-23T07:13:55.809Z,129.38
2019-04-23T07:15:24.998Z,129.38
2019-04-23T07:15:52.004Z,129.38
2019-04-23T07:16:52.551Z,129.38
2019-04-23T07:17:47.684Z,129.38
2019-04-23T07:19:09.559Z,129.38
2019-04-23T07:19:48.079Z,129.38
2019-04-23T07:20:50.920Z,135.00
2019-04-23T07:22:04.727Z,135.00
2019-04-23T07:22:58.170Z,135.00
2019-04-23T07:24:00.322Z,140.63
2019-04-23T07:24:52.786Z,135.00
2019-04-23T07:25:56.766Z,135.00
2019-04-23T07:26:41.982Z,135.00
2019-04-23T07:27:51.288Z,135.00
2019-04-23T07:28:53.267Z,135.00
2019-04-23T07:31:00.003Z,135.00
2019-04-23T07:31:55.777Z,140.63
2019-04-23T07:33:55.769Z,140.63
2019-04-23T07:35:00.946Z,140.63
2019-04-23T07:35:54.456Z,140.63
2019-04-23T07:36:57.233Z,140.63
2019-04-23T07:38:24.079Z,140.63
2019-04-23T07:40:11.308Z,140.63
2019-04-23T07:41:00.174Z,140.63
2019-04-23T07:42:03.421Z,140.63
2019-04-23T07:43:00.101Z,140.63
2019-04-23T07:44:59.454Z,146.25
2019-04-23T07:46:06.449Z,146.25
2019-04-23T07:47:11.585Z,146.25
2019-04-23T07:48:02.049Z,146.25
2019-04-23T07:48:59.634Z,146.25
2019-04-23T07:50:09.734Z,146.25
2019-04-23T07:52:03.083Z,151.88
2019-04-23T07:54:06.020Z,151.88
2019-04-23T07:55:02.289Z,151.88
2019-04-23T07:57:02.584Z,151.88
2019-04-23T07:59:01.272Z,151.88
2019-04-23T08:00:00.798Z,151.88
2019-04-23T08:01:09.649Z,151.88
2019-04-23T08:02:01.276Z,151.88
2019-04-23T08:03:08.395Z,151.88
2019-04-23T08:03:54.233Z,151.88
2019-04-23T08:05:59.406Z,157.50
2019-04-23T08:07:00.822Z,157.50
2019-04-23T08:08:59.646Z,146.25
2019-04-23T08:10:02.439Z,151.88
2019-04-23T08:11:14.317Z,157.50
2019-04-23T08:11:56.770Z,157.50
2019-04-23T08:12:59.501Z,157.50
2019-04-23T08:14:03.534Z,163.13
2019-04-23T08:15:02.182Z,163.13
2019-04-23T08:16:08.874Z,163.13
2019-04-23T08:16:58.305Z,163.13
2019-04-23T08:18:00.215Z,163.13
2019-04-23T08:18:57.678Z,168.75
2019-04-23T08:19:59.614Z,168.75
2019-04-23T08:21:02.448Z,168.75
2019-04-23T08:22:12.758Z,168.75
2019-04-23T08:23:07.098Z,168.75
2019-04-23T08:24:01.605Z,168.75
2019-04-23T08:26:13.534Z,168.75
2019-04-23T08:26:59.780Z,168.75
2019-04-23T08:28:08.026Z,174.38
2019-04-23T08:29:03.590Z,174.38
2019-04-23T08:29:55.839Z,174.38
2019-04-23T08:31:03.623Z,174.38
2019-04-23T08:32:07.645Z,174.38
2019-04-23T08:33:03.946Z,174.38
2019-04-23T08:34:16.975Z,180.00
2019-04-23T08:35:03.151Z,180.00
2019-04-23T08:36:09.498Z,180.00
2019-04-23T08:37:06.435Z,180.00
2019-04-23T08:39:05.335Z,180.00
2019-04-23T08:40:01.911Z,185.63
2019-04-23T08:41:12.981Z,185.63
2019-04-23T08:43:07.542Z,185.63
2019-04-23T08:43:07.554Z,185.63
2019-04-23T08:44:07.125Z,185.63
2019-04-23T08:45:10.465Z,185.63
2019-04-23T08:46:05.731Z,191.25
2019-04-23T08:47:42.310Z,191.25
2019-04-23T08:48:17.303Z,191.25
2019-04-23T08:49:07.870Z,191.25
2019-04-23T08:50:02.040Z,191.25
2019-04-23T08:51:09.636Z,191.25
2019-04-23T08:52:07.151Z,191.25
2019-04-23T08:53:17.658Z,191.25
2019-04-23T08:54:11.762Z,191.25
2019-04-23T08:55:21.032Z,191.25
2019-04-23T08:56:02.030Z,191.25
2019-04-23T08:57:08.774Z,196.88
2019-04-23T08:58:06.228Z,196.88
2019-04-23T08:59:10.958Z,196.88
2019-04-23T09:00:02.862Z,196.88
2019-04-23T09:01:12.687Z,196.88
2019-04-23T09:02:25.583Z,202.50
2019-04-23T09:03:11.225Z,202.50
2019-04-23T09:04:09.230Z,202.50
2019-04-23T09:05:11.390Z,202.50
2019-04-23T09:06:06.433Z,208.13
2019-04-23T09:07:16.788Z,208.13
2019-04-23T09:09:08.905Z,208.13
2019-04-23T09:11:19.377Z,213.75
2019-04-23T09:12:16.765Z,213.75
2019-04-23T09:13:36.389Z,213.75
2019-04-23T09:13:59.540Z,213.75
2019-04-23T09:15:07.795Z,219.38
2019-04-23T09:16:22.441Z,219.38
2019-04-23T09:17:13.568Z,219.38
2019-04-23T09:18:09.642Z,225.00
2019-04-23T09:20:18.705Z,225.00
2019-04-23T09:21:08.962Z,225.00
2019-04-23T09:22:17.110Z,225.00
2019-04-23T09:23:08.132Z,225.00
2019-04-23T09:24:04.208Z,230.63
2019-04-23T09:25:16.644Z,230.63
2019-04-23T09:26:05.479Z,230.63
2019-04-23T09:27:15.762Z,230.63
2019-04-23T09:28:13.418Z,236.25
2019-04-23T09:29:14.862Z,236.25
2019-04-23T09:30:12.624Z,236.25
2019-04-23T09:31:18.815Z,236.25
2019-04-23T09:32:22.265Z,241.88
2019-04-23T09:33:16.006Z,241.88
2019-04-23T09:34:14.096Z,241.88
2019-04-23T09:35:18.338Z,241.88
2019-04-23T09:36:13.298Z,247.50
2019-04-23T09:37:20.963Z,247.50
2019-04-23T09:39:17.033Z,247.50
2019-04-23T09:40:16.778Z,247.50
2019-04-23T09:42:22.317Z,253.13
2019-04-23T09:43:12.209Z,253.13
2019-04-23T09:44:41.436Z,258.75
2019-04-23T09:45:17.293Z,258.75
2019-04-23T09:47:13.998Z,258.75
2019-04-23T09:48:04.481Z,264.38
2019-04-23T09:49:18.719Z,264.38
2019-04-23T09:50:15.703Z,270.00
2019-04-23T09:52:14.712Z,275.63
2019-04-23T09:55:23.985Z,281.25
2019-04-23T09:56:14.643Z,281.25
2019-04-23T09:57:10.779Z,281.25
2019-04-23T09:58:13.999Z,286.88
2019-04-23T09:59:32.362Z,292.50
2019-04-23T10:00:22.476Z,292.50
2019-04-23T10:01:20.820Z,298.13
2019-04-23T10:02:08.414Z,303.75
2019-04-23T10:03:07.602Z,303.75
2019-04-23T10:04:01.835Z,303.75
2019-04-23T10:05:01.293Z,309.38
2019-04-23T10:05:57.157Z,309.38
2019-04-23T10:07:04.563Z,315.00
2019-04-23T10:07:59.893Z,315.00
2019-04-23T10:08:53.540Z,320.63
2019-04-23T10:09:49.707Z,320.63
2019-04-23T10:10:49.188Z,326.25
2019-04-23T10:11:49.318Z,326.25
2019-04-23T10:12:50.152Z,331.88
2019-04-23T10:13:50.235Z,337.50
2019-04-23T10:14:59.329Z,337.50
2019-04-23T10:15:51.472Z,337.50
2019-04-23T10:16:49.432Z,337.50
2019-04-23T10:17:49.971Z,337.50
2019-04-23T10:18:50.894Z,343.13
2019-04-23T10:19:50.831Z,343.13
2019-04-23T10:20:49.733Z,348.75
2019-04-23T10:21:51.251Z,348.75
2019-04-23T10:22:50.453Z,354.38
2019-04-23T10:23:51.543Z,354.38
2019-04-23T10:24:50.866Z,354.38
2019-04-23T10:25:51.801Z,354.38
2019-04-23T10:26:50.532Z,365.63
2019-04-23T10:27:56.552Z,365.63
2019-04-23T10:28:51.894Z,371.25
2019-04-23T10:29:51.856Z,382.50
2019-04-23T10:30:51.075Z,393.75
2019-04-23T10:31:51.497Z,393.75
2019-04-23T10:32:51.652Z,399.38
2019-04-23T10:33:52.374Z,405.00
2019-04-23T10:35:03.485Z,416.25
2019-04-23T10:35:58.939Z,466.88
2019-04-23T10:36:53.466Z,551.25
2019-04-23T10:37:59.635Z,1361.25
2019-04-23T10:39:00.554Z,1586.25
2019-04-23T10:39:58.226Z,1822.50
2019-04-23T10:40:54.040Z,1552.50
2019-04-23T10:41:54.447Z,506.25
2019-04-23T10:42:54.350Z,427.50
2019-04-23T10:43:54.971Z,1805.63
2019-04-23T10:45:08.108Z,1670.63
2019-04-23T10:46:15.416Z,2041.88
2019-04-23T10:48:28.090Z,444.38
2019-04-23T10:49:41.876Z,793.13
2019-04-23T10:50:28.276Z,624.38
2019-04-23T10:51:28.841Z,472.50
2019-04-23T10:53:30.936Z,585.00
2019-04-23T10:55:32.249Z,1254.38
2019-04-23T10:56:31.039Z,905.63
2019-04-23T10:58:28.571Z,534.38
2019-04-23T10:59:34.200Z,894.38
2019-04-23T11:00:24.028Z,624.38
2019-04-23T11:01:21.298Z,472.50
2019-04-23T11:02:40.215Z,646.88
2019-04-23T11:03:47.360Z,523.13
2019-04-23T11:04:38.766Z,534.38
2019-04-23T11:05:28.967Z,534.38
2019-04-23T11:06:39.808Z,511.88
2019-04-23T11:07:30.832Z,489.38
2019-04-23T11:08:27.826Z,495.00
2019-04-23T11:09:42.508Z,506.25
2019-04-23T11:10:22.074Z,506.25
2019-04-23T11:11:30.659Z,511.88
2019-04-23T11:13:38.354Z,523.13
2019-04-23T11:14:49.800Z,523.13
2019-04-23T11:15:32.282Z,534.38
2019-04-23T11:17:35.480Z,540.00
2019-04-23T11:18:40.148Z,551.25
2019-04-23T11:19:32.295Z,551.25
2019-04-23T11:21:31.354Z,540.00
2019-04-23T11:23:29.485Z,556.88
2019-04-23T11:25:31.860Z,551.25
2019-04-23T11:26:37.061Z,551.25
2019-04-23T11:27:28.107Z,551.25
2019-04-23T11:28:27.920Z,562.50
2019-04-23T11:29:34.445Z,579.38
2019-04-23T11:30:33.621Z,562.50
2019-04-23T11:32:46.526Z,585.00
2019-04-23T11:33:30.157Z,596.25
2019-04-23T11:34:55.164Z,590.63
2019-04-23T11:37:42.685Z,562.50
2019-04-23T11:39:30.978Z,568.13
2019-04-23T11:40:29.879Z,573.75
2019-04-23T11:41:36.842Z,568.13
2019-04-23T11:43:35.205Z,590.63
2019-04-23T11:48:04.808Z,573.75
2019-04-23T11:48:46.623Z,573.75
2019-04-23T11:52:44.653Z,624.38
2019-04-23T11:53:34.194Z,635.63
2019-04-23T11:54:30.827Z,630.00
2019-04-23T11:57:04.128Z,663.75
2019-04-23T11:59:44.297Z,675.00
2019-04-23T12:00:46.383Z,669.38
2019-04-23T12:01:42.885Z,675.00
2019-04-23T12:02:40.206Z,680.63
2019-04-23T12:03:41.874Z,697.50
2019-04-23T12:04:55.534Z,691.88
2019-04-23T12:05:41.384Z,686.25
2019-04-23T12:06:30.111Z,691.88
2019-04-23T12:08:38.440Z,669.38
2019-04-23T12:09:40.351Z,669.38
2019-04-23T12:12:33.516Z,686.25
2019-04-23T12:13:47.332Z,686.25
2019-04-23T12:15:42.317Z,691.88
2019-04-23T12:16:45.034Z,691.88
2019-04-23T12:17:35.397Z,708.75
2019-04-23T12:20:37.921Z,697.50
2019-04-23T12:21:37.592Z,691.88
2019-04-23T12:22:42.508Z,691.88
2019-04-23T12:23:49.876Z,686.25
2019-04-23T12:25:36.613Z,708.75
2019-04-23T12:27:31.617Z,691.88
2019-04-23T12:28:40.814Z,686.25
2019-04-23T12:29:37.697Z,697.50
2019-04-23T12:30:42.052Z,708.75
2019-04-23T12:31:38.305Z,703.13
2019-04-23T12:32:53.609Z,714.38
2019-04-23T12:33:44.820Z,708.75
2019-04-23T12:34:46.929Z,720.00
2019-04-23T12:35:43.417Z,714.38
2019-04-23T12:36:41.033Z,714.38
2019-04-23T12:37:49.374Z,731.25
2019-04-23T12:38:30.169Z,725.63
2019-04-23T12:39:42.014Z,736.88
2019-04-23T12:40:38.374Z,742.50
2019-04-23T12:41:41.941Z,731.25
2019-04-23T12:43:28.773Z,731.25
2019-04-23T12:44:44.233Z,736.88
2019-04-23T12:46:49.218Z,742.50
2019-04-23T12:47:58.272Z,731.25
2019-04-23T12:48:46.749Z,742.50
2019-04-23T12:51:47.141Z,753.75
2019-04-23T12:52:41.222Z,753.75
2019-04-23T12:53:34.238Z,759.38
2019-04-23T12:55:41.927Z,765.00
2019-04-23T12:56:48.792Z,765.00
2019-04-23T12:57:46.449Z,765.00
2019-04-23T12:58:45.244Z,736.88
2019-04-23T12:59:44.124Z,720.00
2019-04-23T13:01:42.805Z,703.13
2019-04-23T13:03:45.863Z,697.50
2019-04-23T13:04:42.177Z,691.88
2019-04-23T13:05:32.742Z,680.63
2019-04-23T13:06:39.253Z,675.00
2019-04-23T13:08:46.587Z,669.38
2019-04-23T13:09:45.798Z,641.25
2019-04-23T13:10:51.293Z,630.00
2019-04-23T13:11:46.922Z,641.25
2019-04-23T13:12:54.915Z,641.25
2019-04-23T13:13:48.398Z,635.63
2019-04-23T13:15:40.801Z,663.75
2019-04-23T13:16:53.899Z,680.63
2019-04-23T13:18:46.628Z,686.25
2019-04-23T13:19:49.755Z,691.88
2019-04-23T13:20:36.889Z,675.00
2019-04-23T13:21:57.126Z,686.25
2019-04-23T13:22:47.616Z,686.25
2019-04-23T13:23:40.883Z,686.25
2019-04-23T13:24:46.654Z,675.00
2019-04-23T13:25:49.566Z,663.75
2019-04-23T13:26:42.288Z,663.75
2019-04-23T13:29:51.744Z,669.38
2019-04-23T13:30:46.720Z,658.13
2019-04-23T13:31:40.071Z,652.50
2019-04-23T13:32:46.112Z,658.13
2019-04-23T13:34:53.952Z,646.88
2019-04-23T13:36:45.541Z,652.50
2019-04-23T13:37:56.836Z,652.50
2019-04-23T13:38:56.673Z,658.13
2019-04-23T13:39:49.822Z,652.50
2019-04-23T13:40:46.443Z,658.13
2019-04-23T13:41:38.859Z,652.50
2019-04-23T13:43:01.497Z,652.50
2019-04-23T13:44:49.995Z,641.25
2019-04-23T13:45:59.899Z,635.63
2019-04-23T13:46:39.868Z,624.38
2019-04-23T13:48:42.133Z,624.38
2019-04-23T13:49:51.110Z,618.75
2019-04-23T13:51:06.624Z,613.13
2019-04-23T13:51:50.840Z,613.13
2019-04-23T13:53:58.853Z,601.88
2019-04-23T13:55:44.454Z,590.63
2019-04-23T13:58:51.125Z,573.75
2019-04-23T13:59:48.448Z,585.00
2019-04-23T14:00:52.607Z,579.38
2019-04-23T14:02:04.110Z,579.38
2019-04-23T14:02:51.297Z,579.38
2019-04-23T14:03:49.509Z,568.13
2019-04-23T14:04:53.813Z,556.88
2019-04-23T14:05:53.984Z,556.88
2019-04-23T14:06:52.176Z,545.63
2019-04-23T14:09:57.197Z,534.38
2019-04-23T14:11:45.231Z,523.13
2019-04-23T14:13:12.453Z,517.50
2019-04-23T14:14:08.544Z,511.88
2019-04-23T14:14:56.323Z,506.25
2019-04-23T14:17:04.513Z,489.38
2019-04-23T14:18:15.176Z,483.75
2019-04-23T14:19:53.930Z,466.88
2019-04-23T14:20:46.862Z,461.25
2019-04-23T14:21:51.837Z,450.00
2019-04-23T14:25:02.795Z,438.75
2019-04-23T14:26:48.296Z,444.38
2019-04-23T14:28:00.181Z,450.00
2019-04-23T14:30:17.852Z,472.50
2019-04-23T14:32:00.880Z,500.63
2019-04-23T14:32:54.316Z,506.25
2019-04-23T14:35:04.650Z,517.50
2019-04-23T14:35:56.354Z,517.50
2019-04-23T14:36:57.672Z,523.13
2019-04-23T14:38:09.478Z,523.13
2019-04-23T14:39:52.781Z,517.50
2019-04-23T14:41:05.086Z,517.50
2019-04-23T14:42:03.535Z,517.50
2019-04-23T14:43:07.373Z,511.88
2019-04-23T14:45:00.560Z,506.25
2019-04-23T14:46:23.010Z,511.88
2019-04-23T14:47:05.032Z,506.25
2019-04-23T14:48:05.858Z,500.63
2019-04-23T14:48:56.941Z,500.63
2019-04-23T14:50:18.783Z,506.25
2019-04-23T14:50:58.021Z,500.63
2019-04-23T14:52:14.266Z,511.88
2019-04-23T14:53:09.134Z,506.25
2019-04-23T14:53:52.155Z,506.25
2019-04-23T14:55:36.185Z,506.25
2019-04-23T14:56:00.506Z,506.25
2019-04-23T14:56:59.233Z,506.25
2019-04-23T14:59:04.729Z,500.63
2019-04-23T15:00:01.903Z,483.75
2019-04-23T15:01:16.078Z,472.50
2019-04-23T15:02:00.876Z,455.63
2019-04-23T15:05:00.098Z,416.25
2019-04-23T15:07:13.242Z,382.50
2019-04-23T15:07:58.021Z,376.88
2019-04-23T15:09:07.005Z,376.88
2019-04-23T15:10:03.014Z,360.00
2019-04-23T15:11:13.198Z,348.75
2019-04-23T15:12:16.083Z,309.38
2019-04-23T15:13:03.325Z,303.75
2019-04-23T15:14:06.057Z,298.13
2019-04-23T15:15:06.528Z,270.00
2019-04-23T15:16:11.498Z,275.63
2019-04-23T15:16:59.784Z,264.38
2019-04-23T15:18:09.397Z,264.38
2019-04-23T15:20:04.819Z,258.75
2019-04-23T15:21:25.469Z,241.88
2019-04-23T15:23:13.227Z,225.00
2019-04-23T15:25:11.053Z,213.75
2019-04-23T15:26:50.903Z,202.50
2019-04-23T15:28:40.803Z,185.63
2019-04-23T15:29:56.499Z,180.00
2019-04-23T15:31:04.010Z,174.38
2019-04-23T15:32:03.266Z,168.75
2019-04-23T15:35:14.836Z,151.88
2019-04-23T15:36:37.788Z,140.63
2019-04-23T15:38:30.912Z,135.00
2019-04-23T15:39:11.567Z,135.00
2019-04-23T15:41:10.249Z,123.75
2019-04-23T15:42:26.701Z,123.75
2019-04-23T15:43:12.464Z,118.13